Time;durP1;ratioP1;P1;durP2;ratioP2;P2;SDS_P1;SDS_P2;PMS_P1;PMS_P2;Temp;Humidity;BMP_temperature;BMP_pressure;BME280_temperature;BME280_humidity;BME280_pressure;Samples;Min_cycle;Max_cycle;Signal;HPM_P1;HPM_P2
2023/12/28 00:01:22;;;;;;;1.40;0.68;;;;;;;20.16;44.99;100787.16;4991277;28;97400;-77
2023/12/28 00:03:47;;;;;;;1.70;1.10;;;;;;;20.16;45.29;100783.66;5005112;28;96844;-77
2023/12/28 00:06:12;;;;;;;1.92;0.82;;;;;;;20.15;44.87;100780.13;4993380;28;96716;-77
2023/12/28 00:08:38;;;;;;;1.75;0.70;;;;;;;20.17;45.14;100793.31;4998744;28;123685;-78
2023/12/28 00:11:03;;;;;;;1.23;0.60;;;;;;;20.15;45.21;100789.84;4999014;28;126561;-77
2023/12/28 00:13:28;;;;;;;1.17;0.68;;;;;;;20.16;45.28;100783.66;4991626;28;96781;-78
2023/12/28 00:15:54;;;;;;;1.60;0.63;;;;;;;20.17;45.13;100788.03;4994108;28;96904;-77
2023/12/28 00:18:19;;;;;;;1.38;0.63;;;;;;;20.15;45.00;100790.72;4992028;28;96828;-78
2023/12/28 00:20:45;;;;;;;1.48;0.82;;;;;;;20.16;45.32;100784.53;5005693;28;126753;-77
2023/12/28 00:23:10;;;;;;;1.13;0.73;;;;;;;20.16;45.34;100797.75;4993432;28;97032;-77
2023/12/28 00:25:36;;;;;;;1.70;0.63;;;;;;;20.18;44.75;100792.44;4991988;28;96893;-78
2023/12/28 00:28:01;;;;;;;1.15;0.50;;;;;;;20.17;45.33;100802.13;5004109;28;98964;-77
2023/12/28 00:30:26;;;;;;;0.80;0.52;;;;;;;20.15;45.22;100793.38;5006623;28;97452;-78
2023/12/28 00:32:52;;;;;;;1.13;0.73;;;;;;;20.15;45.09;100803.09;4998334;28;96978;-78
2023/12/28 00:35:17;;;;;;;1.23;0.77;;;;;;;20.15;45.17;100806.59;5011959;28;111318;-78
2023/12/28 00:37:42;;;;;;;1.15;0.68;;;;;;;20.15;44.90;100808.38;5011871;28;122013;-77
2023/12/28 00:40:08;;;;;;;1.60;0.75;;;;;;;20.14;44.96;100812.84;5011525;28;97466;-77
2023/12/28 00:42:33;;;;;;;1.35;0.77;;;;;;;20.16;45.09;100816.28;5011208;28;96863;-77
2023/12/28 00:45:00;;;;;;;1.98;0.93;;;;;;;20.17;45.17;100812.72;5012018;28;96838;-77
2023/12/28 00:47:25;;;;;;;2.03;0.77;;;;;;;20.16;44.98;100818.94;5006244;28;97147;-77
2023/12/28 00:49:51;;;;;;;1.40;0.82;;;;;;;20.16;44.98;100820.72;4993145;28;97073;-77
2023/12/28 00:52:16;;;;;;;1.77;1.00;;;;;;;20.17;45.09;100823.31;5011737;28;111166;-77
2023/12/28 00:54:41;;;;;;;1.20;0.75;;;;;;;20.17;44.92;100823.31;4999814;28;97324;-77
2023/12/28 00:57:08;;;;;;;1.75;0.93;;;;;;;20.17;44.96;100827.75;5012280;28;97492;-76
2023/12/28 00:59:33;;;;;;;0.90;0.60;;;;;;;20.18;45.31;100837.44;5010364;28;100132;-77
2023/12/28 01:01:59;;;;;;;1.35;0.70;;;;;;;20.16;45.07;100834.84;5010784;28;97015;-77
2023/12/28 01:04:25;;;;;;;1.95;0.80;;;;;;;20.17;45.13;100844.50;5008086;28;99807;-77
2023/12/28 01:06:51;;;;;;;1.33;0.60;;;;;;;20.16;44.95;100837.47;5005709;28;129206;-77
2023/12/28 01:09:16;;;;;;;1.27;0.70;;;;;;;20.16;45.14;100836.63;5010533;28;100905;-77
2023/12/28 01:11:42;;;;;;;1.20;0.75;;;;;;;20.19;45.21;100838.31;5009053;28;97496;-77
2023/12/28 01:14:07;;;;;;;1.08;0.70;;;;;;;20.19;44.97;100844.47;5010139;28;113288;-77
2023/12/28 01:16:33;;;;;;;1.60;0.75;;;;;;;20.17;44.85;100847.16;5010526;28;97955;-77
2023/12/28 01:18:59;;;;;;;1.15;0.80;;;;;;;20.18;45.13;100845.38;4993962;28;99745;-77
2023/12/28 01:21:24;;;;;;;1.85;1.00;;;;;;;20.17;44.94;100841.00;5007540;28;111172;-77
2023/12/28 01:23:51;;;;;;;0.77;0.55;;;;;;;20.17;45.08;100847.16;5007492;28;99135;-77
2023/12/28 01:26:19;;;;;;;1.33;0.80;;;;;;;20.17;44.89;100848.94;5008653;28;100199;-77
2023/12/28 01:28:44;;;;;;;1.80;0.75;;;;;;;20.17;45.21;100855.09;5004685;28;99452;-77
2023/12/28 01:31:10;;;;;;;1.80;1.02;;;;;;;20.17;45.32;100855.09;5002572;28;111857;-77
2023/12/28 01:33:36;;;;;;;1.08;0.70;;;;;;;20.18;45.28;100866.56;5000664;28;97687;-77
2023/12/28 01:36:18;;;;;;;1.40;0.65;;;;;;;20.14;45.08;100856.94;5007062;28;100387;-77
2023/12/28 01:38:43;;;;;;;1.60;0.70;;;;;;;20.15;45.07;100862.22;5007228;28;98355;-77
2023/12/28 01:41:09;;;;;;;0.93;0.70;;;;;;;20.16;45.03;100866.59;4998088;28;97462;-77
2023/12/28 01:43:35;;;;;;;1.63;0.77;;;;;;;20.19;45.05;100870.94;5007301;28;97509;-77
2023/12/28 01:46:02;;;;;;;1.23;0.77;;;;;;;20.19;45.32;100870.94;4993624;28;98494;-77
2023/12/28 01:48:28;;;;;;;1.05;0.70;;;;;;;20.19;45.11;100872.72;5002710;28;100151;-77
2023/12/28 01:50:54;;;;;;;1.23;0.70;;;;;;;20.20;45.03;100863.88;5003889;28;96925;-78
2023/12/28 01:53:20;;;;;;;1.35;0.85;;;;;;;20.19;45.08;100878.88;5005069;28;96770;-77
2023/12/28 01:55:45;;;;;;;1.90;0.70;;;;;;;20.16;45.41;100871.91;5019685;28;100451;-77
2023/12/28 01:58:12;;;;;;;1.38;0.55;;;;;;;20.16;45.00;100881.63;5005414;28;100061;-77
2023/12/28 02:00:38;;;;;;;1.65;0.77;;;;;;;20.17;45.20;100870.13;5010442;28;97023;-77
2023/12/28 02:03:06;;;;;;;1.15;0.60;;;;;;;20.17;45.43;100872.75;5012134;28;97335;-77
2023/12/28 02:05:32;;;;;;;1.33;0.60;;;;;;;20.16;44.99;100876.34;4993060;28;100247;-77
2023/12/28 02:07:58;;;;;;;0.88;0.60;;;;;;;20.18;44.99;100877.16;4992041;28;99358;-77
2023/12/28 02:10:23;;;;;;;1.35;0.60;;;;;;;20.16;45.25;100882.50;5001081;28;96949;-77
2023/12/28 02:12:49;;;;;;;1.63;0.80;;;;;;;20.17;44.96;100886.00;5010030;28;97601;-77
2023/12/28 02:15:16;;;;;;;1.58;0.70;;;;;;;20.18;45.29;100874.53;5010010;28;100487;-77
2023/12/28 02:17:41;;;;;;;1.35;0.85;;;;;;;20.16;44.96;100861.31;5008413;28;100242;-77
2023/12/28 02:20:08;;;;;;;1.10;0.70;;;;;;;20.16;45.14;100885.16;5007730;28;97486;-77
2023/12/28 02:22:34;;;;;;;1.33;0.77;;;;;;;20.16;45.38;100877.22;5005219;28;97487;-77
2023/12/28 02:25:11;;;;;;;1.85;0.82;;;;;;;20.14;45.24;100873.72;5008747;28;100710;-77
2023/12/28 02:27:48;;;;;;;1.10;0.50;;;;;;;20.12;45.09;100883.50;4998312;28;97179;-77
2023/12/28 02:30:16;;;;;;;1.38;0.82;;;;;;;20.16;45.14;100892.22;5013545;28;97169;-77
2023/12/28 02:33:08;;;;;;;1.67;0.77;;;;;;;20.13;45.03;100893.16;5012747;28;97084;-77
2023/12/28 02:35:37;;;;;;;1.10;0.55;;;;;;;20.15;45.23;100880.75;5014844;28;97536;-77
2023/12/28 02:38:08;;;;;;;1.42;0.73;;;;;;;20.14;45.38;100876.38;5014751;28;96921;-77
2023/12/28 02:40:38;;;;;;;0.80;0.57;;;;;;;20.14;45.43;100872.84;5012451;28;97030;-77
2023/12/28 02:43:08;;;;;;;1.67;0.70;;;;;;;20.17;45.43;100867.47;4988390;28;96902;-77
2023/12/28 02:45:35;;;;;;;1.23;0.73;;;;;;;20.18;45.28;100866.56;4986808;28;100351;-77
2023/12/28 02:48:01;;;;;;;0.93;0.50;;;;;;;20.19;45.26;100860.34;5013376;28;96714;-77
2023/12/28 02:50:27;;;;;;;1.42;0.63;;;;;;;20.20;44.99;100863.88;5013119;28;97162;-77
2023/12/28 02:52:52;;;;;;;1.67;0.60;;;;;;;20.20;45.07;100862.09;5013376;28;97001;-78
2023/12/28 02:55:18;;;;;;;1.33;0.75;;;;;;;20.19;45.34;100870.09;5013987;28;97499;-77
2023/12/28 02:57:44;;;;;;;1.30;0.60;;;;;;;20.16;45.47;100858.66;5014198;28;97312;-77
2023/12/28 03:00:10;;;;;;;1.42;0.60;;;;;;;20.16;45.40;100860.47;5008979;28;96899;-77
2023/12/28 03:02:37;;;;;;;1.63;0.65;;;;;;;20.15;45.36;100859.56;4999971;28;96939;-77
2023/12/28 03:05:04;;;;;;;1.17;0.63;;;;;;;20.18;45.38;100858.63;5002601;28;99859;-78
2023/12/28 03:07:29;;;;;;;1.35;0.80;;;;;;;20.16;45.34;100858.66;5002720;28;96701;-77
2023/12/28 03:09:55;;;;;;;1.13;0.63;;;;;;;20.15;45.16;100861.34;5007572;28;96699;-77
2023/12/28 03:12:21;;;;;;;1.20;0.60;;;;;;;20.15;45.41;100856.06;5012902;28;98785;-77
2023/12/28 03:14:47;;;;;;;1.23;0.73;;;;;;;20.14;45.19;100863.13;5007174;28;97397;-77
2023/12/28 03:17:13;;;;;;;1.13;0.60;;;;;;;20.15;45.47;100867.50;5007827;28;116809;-77
2023/12/28 03:19:38;;;;;;;0.98;0.60;;;;;;;20.15;45.01;100867.50;4995581;28;96812;-77
2023/12/28 03:22:03;;;;;;;1.27;0.82;;;;;;;20.17;45.20;100864.81;5013942;28;96833;-77
2023/12/28 03:24:29;;;;;;;1.58;0.70;;;;;;;20.16;45.39;100858.66;4991889;28;97817;-77
2023/12/28 03:26:54;;;;;;;1.15;0.85;;;;;;;20.16;45.09;100860.47;5007763;28;118911;-78
2023/12/28 03:29:20;;;;;;;1.33;0.70;;;;;;;20.17;45.08;100852.44;5013767;28;96771;-77
2023/12/28 03:31:45;;;;;;;1.00;0.50;;;;;;;20.19;45.21;100848.91;5013819;28;96863;-77
2023/12/28 03:34:10;;;;;;;1.48;0.80;;;;;;;20.18;45.01;100850.69;5011761;28;113173;-77
2023/12/28 03:36:36;;;;;;;1.63;0.50;;;;;;;20.17;45.28;100848.94;5013023;27;116771;-77
2023/12/28 03:39:01;;;;;;;0.98;0.73;;;;;;;20.16;45.15;100866.59;5012641;28;97357;-77
2023/12/28 03:41:27;;;;;;;1.55;0.90;;;;;;;20.15;45.29;100856.91;5013848;28;96960;-77
2023/12/28 03:43:52;;;;;;;1.50;0.75;;;;;;;20.15;45.50;100862.22;4997396;28;126313;-77
2023/12/28 03:46:17;;;;;;;1.67;0.77;;;;;;;20.14;45.29;100871.09;5012114;28;101592;-77
2023/12/28 03:48:43;;;;;;;1.05;0.55;;;;;;;20.14;45.33;100880.78;5011810;28;111662;-77
2023/12/28 03:51:14;;;;;;;1.30;0.50;;;;;;;20.13;45.24;100863.19;4995353;28;109000;-77
2023/12/28 03:53:39;;;;;;;2.13;0.70;;;;;;;20.15;45.39;100853.41;5013313;28;96891;-77
2023/12/28 03:56:04;;;;;;;1.40;0.80;;;;;;;20.15;45.09;100858.72;5012442;28;122273;-77
2023/12/28 03:58:30;;;;;;;1.30;0.63;;;;;;;20.15;45.50;100851.63;4998249;28;97057;-77
2023/12/28 04:00:55;;;;;;;1.20;0.60;;;;;;;20.17;45.02;100854.22;5012677;28;96822;-77
2023/12/28 04:03:20;;;;;;;1.00;0.50;;;;;;;20.17;45.26;100847.16;4997407;28;127423;-77
2023/12/28 04:05:46;;;;;;;1.35;0.63;;;;;;;20.18;45.26;100845.38;5011675;28;96763;-77
2023/12/28 04:08:12;;;;;;;0.90;0.50;;;;;;;20.21;45.13;100844.41;4998488;28;96898;-77
2023/12/28 04:10:37;;;;;;;1.20;0.52;;;;;;;20.17;45.28;100851.59;5004260;28;96856;-77
2023/12/28 04:13:03;;;;;;;0.95;0.60;;;;;;;20.17;45.33;100848.94;4991286;28;99269;-77
2023/12/28 04:15:30;;;;;;;1.17;0.60;;;;;;;20.17;45.39;100859.53;4991803;28;100845;-77
2023/12/28 04:17:57;;;;;;;1.60;0.70;;;;;;;20.17;45.31;100860.38;5005682;28;96782;-77
2023/12/28 04:20:22;;;;;;;1.02;0.52;;;;;;;20.17;45.41;100860.38;4992419;28;96863;-77
2023/12/28 04:22:47;;;;;;;0.63;0.40;;;;;;;20.20;45.32;100871.84;4991458;28;100111;-77
2023/12/28 04:25:13;;;;;;;1.40;0.70;;;;;;;20.20;44.98;100866.53;5008532;28;98218;-77
2023/12/28 04:27:39;;;;;;;1.42;0.75;;;;;;;20.19;45.17;100854.19;5008970;28;97045;-77
2023/12/28 04:30:05;;;;;;;1.73;0.93;;;;;;;20.17;45.35;100856.88;5012318;28;97105;-77
2023/12/28 04:32:34;;;;;;;1.60;0.80;;;;;;;20.16;45.17;100860.47;5010453;28;99737;-77
2023/12/28 04:35:03;;;;;;;1.20;0.60;;;;;;;20.17;45.35;100856.88;5010594;28;100294;-77
2023/12/28 04:37:30;;;;;;;1.20;0.60;;;;;;;20.17;45.52;100868.34;5011766;28;97424;-77
2023/12/28 04:39:56;;;;;;;1.40;0.63;;;;;;;20.15;45.43;100859.56;5011876;28;96734;-77
2023/12/28 04:42:21;;;;;;;0.95;0.60;;;;;;;20.15;45.13;100862.22;5010639;28;99381;-77
2023/12/28 04:44:47;;;;;;;1.70;0.73;;;;;;;20.15;45.39;100859.56;5006043;28;119737;-77
2023/12/28 04:47:13;;;;;;;1.25;0.90;;;;;;;20.16;45.37;100865.75;5009340;28;96906;-77
2023/12/28 04:49:38;;;;;;;1.42;0.80;;;;;;;20.17;45.26;100856.88;5010266;28;97636;-77
2023/12/28 04:52:04;;;;;;;1.65;0.93;;;;;;;20.18;45.28;100853.34;4993914;28;97724;-77
2023/12/28 04:54:29;;;;;;;1.23;0.52;;;;;;;20.17;45.49;100855.09;5005829;28;97339;-77
2023/12/28 04:56:54;;;;;;;1.23;0.63;;;;;;;20.17;45.51;100852.44;5009874;28;96878;-77
2023/12/28 04:59:20;;;;;;;2.30;0.77;;;;;;;20.14;45.64;100847.25;5006601;28;96797;-77
2023/12/28 05:01:45;;;;;;;1.15;0.75;;;;;;;20.17;45.59;100854.22;4999211;28;125654;-77
2023/12/28 05:04:11;;;;;;;1.15;0.60;;;;;;;20.18;45.06;100871.88;5003043;28;96725;-77
2023/12/28 05:06:37;;;;;;;1.17;0.63;;;;;;;20.18;45.41;100874.53;5008363;28;97042;-77
2023/12/28 05:09:03;;;;;;;1.10;0.60;;;;;;;20.19;45.38;100865.66;4991320;28;96845;-77
2023/12/28 05:11:28;;;;;;;1.58;0.70;;;;;;;20.21;45.24;100876.19;4975993;28;99169;-78
2023/12/28 05:13:54;;;;;;;1.30;0.70;;;;;;;20.19;45.04;100878.03;5006612;28;100130;-78
2023/12/28 05:16:20;;;;;;;1.20;0.52;;;;;;;20.18;45.39;100871.88;5002747;28;112813;-77
2023/12/28 05:18:46;;;;;;;1.08;0.70;;;;;;;20.16;45.12;100874.56;5005978;28;96940;-77
2023/12/28 05:21:14;;;;;;;1.13;0.63;;;;;;;20.17;45.25;100878.91;5003825;28;97525;-77
2023/12/28 05:23:40;;;;;;;1.27;0.82;;;;;;;20.18;45.46;100885.13;5003621;28;98314;-77
2023/12/28 05:26:06;;;;;;;1.88;0.82;;;;;;;20.16;45.13;100890.44;5012307;28;98512;-77
2023/12/28 05:28:32;;;;;;;1.60;0.63;;;;;;;20.15;45.43;100885.19;5008243;28;96813;-77
2023/12/28 05:30:58;;;;;;;1.20;0.60;;;;;;;20.16;45.23;100897.53;5005364;28;99627;-77
2023/12/28 05:33:25;;;;;;;1.60;0.65;;;;;;;20.16;45.16;100893.09;5007721;28;96969;-77
2023/12/28 05:35:50;;;;;;;0.98;0.60;;;;;;;20.17;45.31;100886.88;5010518;28;96841;-78
2023/12/28 05:38:15;;;;;;;1.20;0.73;;;;;;;20.17;45.35;100891.31;5008006;28;111628;-77
2023/12/28 05:40:41;;;;;;;1.23;0.68;;;;;;;20.18;45.21;100890.41;5009482;28;114691;-77
2023/12/28 05:43:06;;;;;;;1.27;0.60;;;;;;;20.20;44.98;100895.66;5011140;28;97217;-77
2023/12/28 05:45:31;;;;;;;1.50;0.70;;;;;;;20.20;45.30;100877.13;4987749;28;114358;-77
2023/12/28 05:47:57;;;;;;;1.20;0.40;;;;;;;20.19;45.01;100889.47;5011787;28;96893;-77
2023/12/28 05:50:22;;;;;;;1.70;0.73;;;;;;;20.19;45.42;100873.59;5005432;28;125597;-77
2023/12/28 05:52:48;;;;;;;0.98;0.50;;;;;;;20.17;45.26;100875.41;5008753;28;111811;-77
2023/12/28 05:55:13;;;;;;;1.77;0.60;;;;;;;20.14;45.47;100889.63;5010351;28;96842;-77
2023/12/28 05:57:38;;;;;;;1.38;0.80;;;;;;;20.14;45.15;100889.63;5012627;28;96881;-77
2023/12/28 06:00:06;;;;;;;2.13;0.60;;;;;;;20.15;45.26;100898.44;4995249;28;122426;-77
2023/12/28 06:02:37;;;;;;;1.67;0.73;;;;;;;20.17;45.38;100907.19;5013005;28;96864;-77
2023/12/28 06:05:03;;;;;;;0.80;0.57;;;;;;;20.16;45.14;100901.03;5014033;28;112017;-77
2023/12/28 06:07:28;;;;;;;1.10;0.60;;;;;;;20.17;45.14;100896.59;5013710;28;96945;-77
2023/12/28 06:09:54;;;;;;;1.73;0.50;;;;;;;20.17;44.99;100892.16;5011508;28;127052;-77
2023/12/28 06:12:19;;;;;;;1.27;0.60;;;;;;;20.16;45.09;100882.50;5013926;28;126396;-77
2023/12/28 06:14:44;;;;;;;1.30;0.60;;;;;;;20.16;45.29;100877.22;5014952;28;96738;-77
2023/12/28 06:17:10;;;;;;;2.00;0.52;;;;;;;20.17;45.17;100889.53;5015814;28;97387;-77
2023/12/28 06:19:35;;;;;;;1.30;0.50;;;;;;;20.18;45.15;100901.00;5001761;28;96711;-77
2023/12/28 06:22:01;;;;;;;1.00;0.50;;;;;;;20.17;45.27;100899.25;4995818;28;116266;-77
2023/12/28 06:24:26;;;;;;;1.35;0.70;;;;;;;20.19;45.15;100901.88;5010244;28;96962;-77
2023/12/28 06:26:52;;;;;;;1.70;0.73;;;;;;;20.17;45.32;100912.50;5009492;28;97299;-77
2023/12/28 06:29:17;;;;;;;1.45;0.60;;;;;;;20.17;45.19;100920.44;5003420;28;116047;-77
2023/12/28 06:31:42;;;;;;;1.65;0.60;;;;;;;20.19;45.12;100920.41;5001662;28;96998;-77
2023/12/28 06:34:08;;;;;;;1.75;0.90;;;;;;;20.19;45.28;100918.63;5004584;28;103562;-77
2023/12/28 06:36:33;;;;;;;1.23;0.68;;;;;;;20.19;45.10;100923.91;5010918;28;96820;-77
2023/12/28 06:38:59;;;;;;;1.70;0.93;;;;;;;20.19;45.21;100920.41;5009303;28;96807;-77
2023/12/28 06:41:25;;;;;;;1.13;0.60;;;;;;;20.17;45.46;100923.09;5007708;28;100720;-77
2023/12/28 06:43:51;;;;;;;1.35;0.70;;;;;;;20.15;45.36;100923.13;5012065;28;96898;-77
2023/12/28 06:46:17;;;;;;;1.45;0.70;;;;;;;20.16;45.14;100924.00;5009672;28;97140;-77
2023/12/28 06:48:43;;;;;;;0.95;0.80;;;;;;;20.16;45.15;100927.53;5009142;28;97369;-77
2023/12/28 06:51:21;;;;;;;1.77;0.73;;;;;;;20.17;45.42;100931.88;5009208;28;97299;-77
2023/12/28 06:53:48;;;;;;;1.63;0.75;;;;;;;20.15;45.06;100932.84;5011325;28;97009;-77
2023/12/28 06:56:14;;;;;;;1.35;0.65;;;;;;;20.16;45.67;100932.81;5013154;28;96929;-77
2023/12/28 06:58:40;;;;;;;1.27;0.70;;;;;;;20.17;45.32;100928.38;5008228;28;96950;-77
2023/12/28 07:01:06;;;;;;;1.75;0.88;;;;;;;20.16;45.42;100934.59;5014356;28;97394;-78
2023/12/28 07:03:32;;;;;;;1.42;0.60;;;;;;;20.17;45.13;100931.03;5011315;28;96791;-77
2023/12/28 07:06:02;;;;;;;1.02;0.50;;;;;;;20.18;45.21;100924.84;5005694;28;96837;-77
2023/12/28 07:08:28;;;;;;;1.50;0.50;;;;;;;20.17;45.25;100917.78;5013012;28;97663;-77
2023/12/28 07:10:54;;;;;;;1.98;0.75;;;;;;;20.18;45.01;100930.13;5003771;28;97169;-77
2023/12/28 07:13:19;;;;;;;1.52;0.65;;;;;;;20.18;45.04;100935.44;5010011;28;97250;-77
2023/12/28 07:15:44;;;;;;;1.60;0.95;;;;;;;20.19;45.15;100937.16;5012921;28;105290;-77
2023/12/28 07:18:10;;;;;;;1.50;0.63;;;;;;;20.19;45.40;100947.75;5011796;28;100162;-77
2023/12/28 07:20:35;;;;;;;1.42;0.70;;;;;;;20.17;45.38;100944.28;5010287;28;124455;-77
2023/12/28 07:23:00;;;;;;;1.67;0.70;;;;;;;20.17;45.40;100952.22;5003449;28;97713;-77
2023/12/28 07:25:26;;;;;;;2.10;0.90;;;;;;;20.16;44.99;100961.09;5004515;28;97059;-77
2023/12/28 07:27:51;;;;;;;1.83;0.68;;;;;;;20.16;45.48;100961.94;5000338;28;127453;-77
2023/12/28 07:30:17;;;;;;;1.30;0.50;;;;;;;20.16;45.10;100958.44;4993553;28;98393;-77
2023/12/28 07:32:44;;;;;;;1.75;0.60;;;;;;;20.16;45.46;100963.72;5013453;28;96854;-77
2023/12/28 07:35:10;;;;;;;1.90;0.73;;;;;;;20.18;45.12;100961.91;5004400;28;97198;-77
2023/12/28 07:37:35;;;;;;;3.15;0.80;;;;;;;20.19;45.10;100958.34;5004412;28;97692;-77
2023/12/28 07:40:01;;;;;;;2.13;0.80;;;;;;;20.19;45.14;100960.97;5005641;28;125399;-78
2023/12/28 07:42:27;;;;;;;1.80;0.90;;;;;;;20.20;45.21;100964.53;5011474;28;96798;-77
2023/12/28 07:44:52;;;;;;;1.02;0.60;;;;;;;20.19;45.24;100976.88;5011857;28;97245;-78
2023/12/28 07:47:18;;;;;;;2.30;0.60;;;;;;;20.18;45.05;100964.56;4988543;28;126903;-77
2023/12/28 07:49:43;;;;;;;3.17;0.52;;;;;;;20.21;45.33;100975.06;5009501;28;97310;-77
2023/12/28 07:52:09;;;;;;;1.88;0.80;;;;;;;20.21;45.25;100982.13;5012562;28;96783;-77
2023/12/28 07:54:34;;;;;;;1.25;0.50;;;;;;;20.19;45.14;100986.59;4996086;28;97244;-77
2023/12/28 07:57:00;;;;;;;1.60;0.70;;;;;;;20.17;45.40;100981.34;5013460;28;97317;-77
2023/12/28 07:59:25;;;;;;;2.90;0.70;;;;;;;20.21;45.06;100990.09;5011510;28;100009;-77
2023/12/28 08:01:50;;;;;;;1.80;0.70;;;;;;;20.20;45.26;100998.94;5012099;28;97144;-77
2023/12/28 08:04:16;;;;;;;1.33;0.70;;;;;;;20.19;45.06;101005.16;5011522;28;97378;-78
2023/12/28 08:06:41;;;;;;;2.05;0.77;;;;;;;20.18;45.24;100996.34;5013056;28;97954;-77
2023/12/28 08:09:07;;;;;;;1.60;0.63;;;;;;;20.17;45.20;101003.41;5011186;28;126614;-77
2023/12/28 08:11:32;;;;;;;1.92;0.85;;;;;;;20.20;45.16;101004.25;5008807;28;96911;-77
2023/12/28 08:13:57;;;;;;;1.33;0.60;;;;;;;20.17;45.07;101013.97;5004521;28;96899;-77
2023/12/28 08:16:23;;;;;;;2.78;0.60;;;;;;;20.20;45.21;101006.91;5011603;28;123544;-77
2023/12/28 08:18:48;;;;;;;0.85;0.43;;;;;;;20.19;45.09;101018.38;5002094;28;109749;-77
2023/12/28 08:21:13;;;;;;;1.98;0.70;;;;;;;20.19;44.99;101028.97;5008298;28;96722;-77
2023/12/28 08:23:39;;;;;;;1.67;0.70;;;;;;;20.20;45.21;101028.09;4991167;28;96925;-77
2023/12/28 08:26:04;;;;;;;2.05;0.68;;;;;;;20.19;45.38;101026.34;5009639;28;101618;-77
2023/12/28 08:28:30;;;;;;;1.70;0.82;;;;;;;20.19;45.29;101028.97;4993026;28;98254;-77
2023/12/28 08:30:56;;;;;;;2.53;0.80;;;;;;;20.20;45.40;101031.59;5011947;28;96823;-77
2023/12/28 08:33:21;;;;;;;2.13;0.63;;;;;;;20.20;45.11;101022.78;5010424;28;97671;-77
2023/12/28 08:35:47;;;;;;;2.67;1.02;;;;;;;20.18;45.26;101020.19;5009467;28;100376;-77
2023/12/28 08:38:12;;;;;;;1.92;0.80;;;;;;;20.19;45.18;101013.09;5009538;28;97159;-77
2023/12/28 08:40:38;;;;;;;1.70;0.57;;;;;;;20.19;45.40;101013.94;5008909;28;96847;-77
2023/12/28 08:43:04;;;;;;;1.75;0.65;;;;;;;20.19;44.94;101008.66;5002961;28;97050;-77
2023/12/28 08:45:30;;;;;;;3.08;0.88;;;;;;;20.20;45.08;101012.19;5019923;28;97565;-77
2023/12/28 08:47:55;;;;;;;2.20;0.60;;;;;;;20.20;45.17;101018.34;5007715;28;98269;-77
2023/12/28 08:50:21;;;;;;;1.90;0.75;;;;;;;20.21;45.23;101027.16;5012740;28;96809;-77
2023/12/28 08:52:46;;;;;;;2.47;0.63;;;;;;;20.21;45.02;101027.16;5013436;28;97956;-77
2023/12/28 08:55:11;;;;;;;1.83;0.70;;;;;;;20.22;45.00;101031.56;5012786;28;97100;-77
2023/12/28 08:57:37;;;;;;;1.42;0.80;;;;;;;20.20;45.40;101038.69;5012872;28;99397;-77
2023/12/28 09:00:05;;;;;;;2.10;1.20;;;;;;;20.21;45.21;101033.31;5011306;28;110005;-77
2023/12/28 09:02:30;;;;;;;1.30;0.60;;;;;;;20.20;45.26;101044.84;4994456;28;96920;-77
2023/12/28 09:04:58;;;;;;;2.65;1.15;;;;;;;20.20;45.32;101052.78;5013074;28;97210;-77
2023/12/28 09:07:23;;;;;;;1.95;0.65;;;;;;;20.22;45.06;101060.69;5012021;28;97757;-77
2023/12/28 09:09:49;;;;;;;2.20;0.60;;;;;;;20.23;45.17;101051.81;5012082;28;97569;-77
2023/12/28 09:12:14;;;;;;;2.40;0.85;;;;;;;20.22;45.21;101064.22;5013291;28;96894;-78
2023/12/28 09:14:40;;;;;;;2.50;0.70;;;;;;;20.20;45.14;101058.09;5011728;28;97463;-77
2023/12/28 09:17:05;;;;;;;2.17;0.93;;;;;;;20.19;45.31;101061.63;5008646;28;107084;-77
2023/12/28 09:19:30;;;;;;;3.20;0.73;;;;;;;20.21;45.27;101064.25;5006837;28;101640;-77
2023/12/28 09:21:56;;;;;;;1.67;0.90;;;;;;;20.21;45.21;101066.88;5005991;28;101385;-77
2023/12/28 09:24:22;;;;;;;1.33;0.80;;;;;;;20.20;45.14;101078.41;5006188;28;97553;-77
2023/12/28 09:26:47;;;;;;;2.03;0.73;;;;;;;20.21;45.33;101072.19;5005189;28;117634;-77
2023/12/28 09:29:12;;;;;;;1.58;0.55;;;;;;;20.20;45.12;101079.28;5005760;28;96964;-78
2023/12/28 09:31:39;;;;;;;1.50;0.82;;;;;;;20.20;45.13;101084.56;5001610;28;96991;-77
2023/12/28 09:34:04;;;;;;;2.30;0.70;;;;;;;20.19;45.25;101093.41;5007445;28;126267;-78
2023/12/28 09:36:33;;;;;;;1.95;0.80;;;;;;;20.20;45.13;101081.91;5013279;28;125458;-77
2023/12/28 09:38:58;;;;;;;0.90;0.50;;;;;;;20.19;45.24;101077.50;5007804;28;96752;-77
2023/12/28 09:41:29;;;;;;;2.53;0.73;;;;;;;20.19;45.38;101077.50;5013234;28;96737;-77
2023/12/28 09:44:22;;;;;;;1.52;0.80;;;;;;;20.17;45.32;101084.63;5006613;28;97783;-77
2023/12/28 09:46:47;;;;;;;1.58;0.70;;;;;;;20.21;45.05;101081.00;5000843;28;96780;-77
2023/12/28 09:49:13;;;;;;;1.30;0.60;;;;;;;20.22;45.34;101092.47;5007686;28;96881;-77
2023/12/28 09:51:38;;;;;;;1.63;0.65;;;;;;;20.20;45.10;101089.84;5002567;28;107049;-77
2023/12/28 09:54:04;;;;;;;1.65;0.77;;;;;;;20.23;45.23;101089.81;5006357;28;99314;-77
2023/12/28 09:56:32;;;;;;;1.30;0.60;;;;;;;20.22;45.38;101085.41;5008627;28;96800;-77
2023/12/28 09:58:58;;;;;;;2.67;0.82;;;;;;;20.23;44.89;101089.81;5020172;28;97145;-77
2023/12/28 10:01:23;;;;;;;2.03;0.60;;;;;;;20.21;44.86;101078.34;5007246;28;96737;-77
2023/12/28 10:03:48;;;;;;;2.42;0.70;;;;;;;20.21;45.36;101093.38;5011857;28;97190;-77
2023/12/28 10:06:15;;;;;;;3.80;1.10;;;;;;;20.22;45.13;101084.53;5011651;28;97251;-77
2023/12/28 10:08:48;;;;;;;2.95;0.88;;;;;;;20.21;45.20;101088.94;5010944;28;97035;-77
2023/12/28 10:11:17;;;;;;;2.53;0.82;;;;;;;20.22;45.33;101088.03;5012492;28;96809;-77
2023/12/28 10:13:43;;;;;;;2.60;0.70;;;;;;;20.21;45.23;101091.59;5009384;28;97699;-77
2023/12/28 10:16:10;;;;;;;1.52;0.70;;;;;;;20.21;45.17;101088.94;5010874;28;96912;-77
2023/12/28 10:18:36;;;;;;;2.53;0.77;;;;;;;20.21;45.07;101110.13;5013170;28;96762;-77
2023/12/28 10:21:02;;;;;;;2.13;0.60;;;;;;;20.21;45.38;101096.03;5011357;28;97250;-78
2023/12/28 10:23:27;;;;;;;1.52;0.57;;;;;;;20.19;45.25;101098.69;5012660;28;97358;-77
2023/12/28 10:25:56;;;;;;;1.73;0.60;;;;;;;20.20;45.18;101100.47;5012030;28;99771;-77
2023/12/28 10:28:21;;;;;;;;;;;;;;;20.17;45.31;101093.44;5013926;28;98061;-77
2023/12/28 10:30:47;;;;;;;1.65;0.63;;;;;;;20.23;45.35;101091.56;5013581;28;96898;-77
2023/12/28 10:33:13;;;;;;;2.42;0.50;;;;;;;20.23;45.03;101102.16;5012221;28;97494;-77
2023/12/28 10:35:38;;;;;;;1.85;0.75;;;;;;;20.25;45.10;101092.38;5004109;28;97159;-77
2023/12/28 10:38:06;;;;;;;1.67;0.80;;;;;;;20.22;45.05;101096.00;5011278;28;116812;-77
2023/12/28 10:40:32;;;;;;;3.40;0.88;;;;;;;20.23;45.16;101099.50;5010625;28;97600;-77
2023/12/28 10:43:01;;;;;;;1.80;0.70;;;;;;;20.23;45.11;101089.81;5004785;28;96802;-77
2023/12/28 10:45:29;;;;;;;2.63;0.73;;;;;;;20.21;45.38;101081.00;5011205;28;97476;-77
2023/12/28 10:48:08;;;;;;;1.65;0.90;;;;;;;20.21;45.39;101083.63;5002452;28;97167;-77
2023/12/28 10:50:40;;;;;;;1.77;0.77;;;;;;;20.23;44.91;101095.09;4991563;28;96919;-77
2023/12/28 10:53:33;;;;;;;2.28;0.80;;;;;;;20.20;45.23;101089.84;5008562;28;96828;-77
2023/12/28 10:56:20;;;;;;;2.40;0.93;;;;;;;20.23;44.98;101092.44;5004371;28;96972;-77
2023/12/28 10:59:32;;;;;;;1.45;0.63;;;;;;;20.19;45.10;101098.69;5006597;28;96825;-77
2023/12/28 11:02:00;;;;;;;3.15;0.60;;;;;;;20.24;45.02;101088.88;5000415;28;96991;-77
2023/12/28 11:04:41;;;;;;;1.85;0.70;;;;;;;20.22;44.82;101077.44;4992484;28;99146;-77
2023/12/28 11:07:08;;;;;;;1.25;0.65;;;;;;;20.24;44.96;101074.75;5007519;28;97567;-77
2023/12/28 11:09:34;;;;;;;2.55;0.75;;;;;;;20.25;45.00;101066.78;5006530;28;97023;-77
2023/12/28 11:12:01;;;;;;;2.05;0.85;;;;;;;20.26;44.88;101072.94;5017924;28;97465;-77
2023/12/28 11:14:31;;;;;;;1.67;0.68;;;;;;;20.25;45.29;101066.78;5004227;28;97575;-77
2023/12/28 11:17:00;;;;;;;2.67;0.77;;;;;;;20.26;45.02;101067.66;5010352;28;97093;-77
2023/12/28 11:19:26;;;;;;;2.35;0.70;;;;;;;20.25;44.95;101060.59;5006077;28;97333;-77
2023/12/28 11:21:52;;;;;;;1.52;0.65;;;;;;;20.23;45.22;101060.66;5005607;28;97003;-77